Etusivu
METAR-TAF:

METAR-TAF

Lentoasemat :

Hamilton, Texas, Yhdysvallat

Leveyspiiri: 31-39-57N, Pituuspiiri: 098-08-55W, korkeus merenpinnasta: 396 m

Tämänhetkinen sää

Tämä raportti tehtiin 16 minuuttia sitten, kello 04.15 UTC
Tuuli 5 kn idästä/kaakosta
Lämpötila 21°C
Kosteus 60%
Ilmanpaine 1020 hPa
Näkyvyys: 16.1 km
selkeää

METAR: KMNZ 310415Z AUTO 11005KT 10SM CLR 21/13 A3013 RMK AO2 T02100132

Aika: 22:31 (04:31 UTC)


TAF: puuttuu

Säähavainnot ja -ennusteet yli 4000 lentoasemalta (METAR- ja TAF-raportit).

Käytössä olevat sääasemat on merkitty karttaan keltaisilla ja punaisilla pisteillä.

Aseta hiiri pisteen päälle nähdäksesi sääaseman nimen.

Klikkaa sitten nähdäksesi säähavainnot ja -ennusteet.

Kartan vaihtaminen: klikkaa mustalla rastilla varustettuja vihreitä pisteitä, niin voit zoomata sisään; viivalla varustettua vihreää pistettä, niin voit zoomata ulos tai vihreitä nuolia, niin pääset viereisille kartoille.


METAR-TAF: